createdAt,value
2017-07-16T00:00:14.836Z,62.12
2017-07-16T00:00:40.994Z,61.74
2017-07-16T00:01:07.174Z,61.55
2017-07-16T00:01:33.337Z,61.61
2017-07-16T00:01:59.497Z,61.52
2017-07-16T00:02:25.669Z,61.71
2017-07-16T00:02:51.831Z,62.03
2017-07-16T00:03:18.006Z,61.55
2017-07-16T00:03:44.169Z,62.12
2017-07-16T00:04:10.327Z,61.61
2017-07-16T00:04:36.504Z,62.09
2017-07-16T00:05:02.671Z,61.52
2017-07-16T00:05:28.827Z,61.8
2017-07-16T00:05:55.003Z,61.61
2017-07-16T00:06:21.172Z,62
2017-07-16T00:06:47.331Z,62.38
2017-07-16T00:07:13.501Z,62.29
2017-07-16T00:07:39.676Z,62.87
2017-07-16T00:08:05.865Z,62.29
2017-07-16T00:08:32.030Z,62.38
2017-07-16T00:08:58.188Z,62.29
2017-07-16T00:09:24.391Z,62.87
2017-07-16T00:09:50.559Z,62.48
2017-07-16T00:10:16.716Z,62.87
2017-07-16T00:10:42.884Z,63.15
2017-07-16T00:11:09.058Z,63.15
2017-07-16T00:11:35.213Z,62.87
2017-07-16T00:12:01.380Z,62.67
2017-07-16T00:12:27.556Z,63.34
2017-07-16T00:12:53.716Z,63.15
2017-07-16T00:13:19.882Z,62.87
2017-07-16T00:13:46.058Z,62.38
2017-07-16T00:14:12.222Z,62.96
2017-07-16T00:14:38.379Z,63.06
2017-07-16T00:15:04.557Z,63.22
2017-07-16T00:15:30.724Z,62.93
2017-07-16T00:15:56.883Z,63.22
2017-07-16T00:16:23.058Z,63.06
2017-07-16T00:16:49.227Z,63.15
2017-07-16T00:17:15.382Z,63.34
2017-07-16T00:17:41.552Z,63.12
2017-07-16T00:18:07.726Z,63.02
2017-07-16T00:18:33.882Z,63.02
2017-07-16T00:19:00.048Z,63.22
2017-07-16T00:19:26.212Z,63.44
2017-07-16T00:19:52.385Z,63.31
2017-07-16T00:20:18.553Z,63.44
2017-07-16T00:20:44.712Z,63.22
2017-07-16T00:21:10.883Z,63.54
2017-07-16T00:21:37.058Z,63.51
2017-07-16T00:22:03.211Z,63.31
2017-07-16T00:22:29.380Z,63.44
2017-07-16T00:22:55.556Z,63.41
2017-07-16T00:23:21.715Z,63.02
2017-07-16T00:23:47.881Z,63.25
2017-07-16T00:24:14.055Z,63.34
2017-07-16T00:24:40.218Z,63.41
2017-07-16T00:25:06.391Z,63.25
2017-07-16T00:25:32.547Z,63.25
2017-07-16T00:25:58.713Z,63.79
2017-07-16T00:26:24.888Z,63.44
2017-07-16T00:26:51.046Z,63.22
2017-07-16T00:27:17.211Z,63.51
2017-07-16T00:27:43.386Z,63.51
2017-07-16T00:28:09.548Z,63.6
2017-07-16T00:28:35.702Z,63.89
2017-07-16T00:29:01.879Z,63.79
2017-07-16T00:29:28.044Z,63.99
2017-07-16T00:29:54.203Z,63.73
2017-07-16T00:30:20.377Z,63.79
2017-07-16T00:30:46.536Z,63.99
2017-07-16T00:31:12.709Z,64.02
2017-07-16T00:31:38.873Z,64.56
2017-07-16T00:32:05.030Z,64.47
2017-07-16T00:32:31.209Z,63.99
2017-07-16T00:32:57.377Z,64.28
2017-07-16T00:33:23.532Z,63.99
2017-07-16T00:33:49.704Z,64.18
2017-07-16T00:34:15.873Z,64.08
2017-07-16T00:34:42.029Z,64.18
2017-07-16T00:35:08.199Z,63.99
2017-07-16T00:35:34.370Z,63.7
2017-07-16T00:36:00.526Z,64.37
2017-07-16T00:36:26.694Z,64.18
2017-07-16T00:36:52.870Z,64.37
2017-07-16T00:37:19.026Z,64.37
2017-07-16T00:37:45.195Z,64.28
2017-07-16T00:38:11.365Z,64.28
2017-07-16T00:38:37.526Z,64.18
2017-07-16T00:39:03.682Z,63.99
2017-07-16T00:39:29.859Z,63.99
2017-07-16T00:39:56.025Z,64.47
2017-07-16T00:40:22.182Z,64.28
2017-07-16T00:40:48.354Z,64.28
2017-07-16T00:41:14.522Z,64.18
2017-07-16T00:41:40.688Z,64.28
2017-07-16T00:42:06.851Z,64.28
2017-07-16T00:42:33.008Z,64.08
2017-07-16T00:42:59.216Z,63.99
2017-07-16T00:43:25.383Z,64.08
2017-07-16T00:43:51.543Z,64.28
2017-07-16T00:44:17.717Z,64.37
2017-07-16T00:44:43.885Z,64.56
2017-07-16T00:45:10.042Z,64.37
2017-07-16T00:45:36.212Z,64.08
2017-07-16T00:46:02.389Z,64.95
2017-07-16T00:46:28.545Z,64.86
2017-07-16T00:46:54.715Z,64.66
2017-07-16T00:47:20.875Z,65.33
2017-07-16T00:47:47.048Z,65.33
2017-07-16T00:48:13.216Z,65.2
2017-07-16T00:48:39.377Z,65.2
2017-07-16T00:49:05.548Z,65.11
2017-07-16T00:49:31.724Z,65.01
2017-07-16T00:49:57.877Z,65.59
2017-07-16T00:50:24.045Z,65.2
2017-07-16T00:50:50.219Z,65.11
2017-07-16T00:51:16.377Z,65.11
2017-07-16T00:51:42.540Z,65.59
2017-07-16T00:52:08.713Z,65.01
2017-07-16T00:52:34.876Z,64.92
2017-07-16T00:53:01.050Z,65.4
2017-07-16T00:53:27.205Z,65.11
2017-07-16T00:53:53.371Z,65.11
2017-07-16T00:54:19.545Z,65.4
2017-07-16T00:54:45.704Z,65.3
2017-07-16T00:55:11.868Z,64.76
2017-07-16T00:55:38.044Z,65.5
2017-07-16T00:56:04.204Z,65.01
2017-07-16T00:56:30.360Z,65.2
2017-07-16T00:56:56.540Z,64.92
2017-07-16T00:57:22.708Z,65.01
2017-07-16T00:57:48.865Z,65.3
2017-07-16T00:58:15.038Z,65.11
2017-07-16T00:58:41.201Z,65.11
2017-07-16T00:59:07.374Z,65.11
2017-07-16T00:59:33.538Z,65.4
2017-07-16T00:59:59.695Z,65.01
2017-07-16T01:00:25.873Z,65.2
2017-07-16T01:00:52.040Z,65.11
2017-07-16T01:01:18.196Z,65.11
2017-07-16T01:01:44.370Z,65.2
2017-07-16T01:02:10.539Z,65.2
2017-07-16T01:02:36.695Z,65.11
2017-07-16T01:03:02.867Z,64.92
2017-07-16T01:03:29.040Z,65.69
2017-07-16T01:03:55.201Z,65.11
2017-07-16T01:04:21.366Z,65.4
2017-07-16T01:04:47.523Z,65.11
2017-07-16T01:05:13.696Z,65.11
2017-07-16T01:05:39.865Z,65.2
2017-07-16T01:06:06.024Z,65.2
2017-07-16T01:06:32.197Z,65.01
2017-07-16T01:06:58.370Z,65.01
2017-07-16T01:07:24.523Z,65.11
2017-07-16T01:07:50.691Z,65.59
2017-07-16T01:08:16.868Z,65.59
2017-07-16T01:08:43.027Z,65.59
2017-07-16T01:09:09.193Z,65.59
2017-07-16T01:09:35.359Z,65.4
2017-07-16T01:10:01.528Z,65.01
2017-07-16T01:10:27.702Z,65.4
2017-07-16T01:10:53.858Z,65.4
2017-07-16T01:11:20.024Z,65.59
2017-07-16T01:11:46.200Z,65.5
2017-07-16T01:12:12.359Z,65.33
2017-07-16T01:12:38.522Z,64.66
2017-07-16T01:13:04.696Z,65.01
2017-07-16T01:13:30.860Z,64.86
2017-07-16T01:13:57.013Z,65.05
2017-07-16T01:14:23.190Z,64.95
2017-07-16T01:14:49.354Z,64.95
2017-07-16T01:15:15.525Z,65.14
2017-07-16T01:15:41.684Z,65.05
2017-07-16T01:16:07.846Z,64.76
2017-07-16T01:16:34.021Z,64.86
2017-07-16T01:17:00.185Z,64.56
2017-07-16T01:17:26.343Z,65.14
2017-07-16T01:17:52.522Z,64.95
2017-07-16T01:18:18.687Z,64.95
2017-07-16T01:18:44.845Z,64.66
2017-07-16T01:19:11.021Z,64.86
2017-07-16T01:19:37.192Z,65.5
2017-07-16T01:20:03.350Z,64.47
2017-07-16T01:20:29.521Z,64.95
2017-07-16T01:20:55.696Z,64.95
2017-07-16T01:21:21.849Z,64.66
2017-07-16T01:21:48.018Z,64.66
2017-07-16T01:22:14.193Z,64.37
2017-07-16T01:22:40.348Z,65.05
2017-07-16T01:23:06.511Z,65.24
2017-07-16T01:23:32.686Z,64.08
2017-07-16T01:23:58.849Z,64.76
2017-07-16T01:24:25.005Z,64.66
2017-07-16T01:24:51.181Z,64.95
2017-07-16T01:25:17.348Z,65.05
2017-07-16T01:25:43.506Z,64.66
2017-07-16T01:26:09.677Z,64.08
2017-07-16T01:26:35.839Z,64.08
2017-07-16T01:27:02.045Z,63.99
2017-07-16T01:27:28.209Z,63.89
2017-07-16T01:27:54.364Z,64.18
2017-07-16T01:28:20.542Z,63.99
2017-07-16T01:28:46.707Z,64.18
2017-07-16T01:29:12.864Z,64.28
2017-07-16T01:29:39.042Z,64.28
2017-07-16T01:30:05.212Z,64.18
2017-07-16T01:30:31.400Z,64.28
2017-07-16T01:30:57.570Z,64.37
2017-07-16T01:31:23.745Z,63.99
2017-07-16T01:31:49.909Z,64.08
2017-07-16T01:32:16.074Z,64.18
2017-07-16T01:32:42.234Z,64.47
2017-07-16T01:33:08.439Z,64.28
2017-07-16T01:33:34.611Z,64.08
2017-07-16T01:34:00.772Z,64.08
2017-07-16T01:34:26.942Z,63.99
2017-07-16T01:34:53.116Z,64.18
2017-07-16T01:35:19.269Z,64.18
2017-07-16T01:35:45.438Z,64.37
2017-07-16T01:36:11.613Z,64.28
2017-07-16T01:36:37.777Z,64.37
2017-07-16T01:37:03.933Z,63.79
2017-07-16T01:37:30.096Z,64.18
2017-07-16T01:37:56.265Z,64.18
2017-07-16T01:38:22.439Z,64.08
2017-07-16T01:38:48.594Z,64.37
2017-07-16T01:39:14.762Z,64.28
2017-07-16T01:39:40.935Z,64.28
2017-07-16T01:40:07.095Z,64.08
2017-07-16T01:40:33.257Z,64.37
2017-07-16T01:40:59.431Z,64.18
2017-07-16T01:41:25.594Z,64.28
2017-07-16T01:41:51.751Z,64.18
2017-07-16T01:42:17.929Z,64.08
2017-07-16T01:42:44.093Z,64.37
2017-07-16T01:43:10.261Z,64.28
2017-07-16T01:43:36.418Z,64.28
2017-07-16T01:44:02.582Z,64.37
2017-07-16T01:44:28.757Z,64.76
2017-07-16T01:44:54.918Z,64.66
2017-07-16T01:45:21.074Z,64.56
2017-07-16T01:45:47.253Z,64.66
2017-07-16T01:46:13.419Z,64.95
2017-07-16T01:46:39.577Z,64.95
2017-07-16T01:47:05.749Z,64.76
2017-07-16T01:47:31.917Z,64.66
2017-07-16T01:47:58.075Z,65.05
2017-07-16T01:48:24.316Z,64.66
2017-07-16T01:48:50.435Z,64.47
2017-07-16T01:49:16.613Z,65.14
2017-07-16T01:49:42.778Z,64.47
2017-07-16T01:50:08.936Z,64.95
2017-07-16T01:50:35.113Z,64.76
2017-07-16T01:51:01.282Z,65.05
2017-07-16T01:51:27.439Z,64.86
2017-07-16T01:51:53.609Z,64.86
2017-07-16T01:52:19.785Z,64.86
2017-07-16T01:52:45.944Z,65.05
2017-07-16T01:53:12.109Z,64.86
2017-07-16T01:53:38.283Z,64.86
2017-07-16T01:54:04.441Z,64.86
2017-07-16T01:54:30.613Z,65.63
2017-07-16T01:54:56.770Z,64.86
2017-07-16T01:55:22.940Z,64.56
2017-07-16T01:55:49.114Z,65.05
2017-07-16T01:56:15.269Z,64.56
2017-07-16T01:56:41.436Z,64.95
2017-07-16T01:57:07.609Z,65.14
2017-07-16T01:57:33.768Z,65.53
2017-07-16T01:57:59.930Z,65.33
2017-07-16T01:58:26.105Z,65.05
2017-07-16T01:58:52.270Z,65.24
2017-07-16T01:59:18.428Z,64.92
2017-07-16T01:59:44.601Z,65.24
2017-07-16T02:00:10.766Z,65.3
2017-07-16T02:00:37.093Z,65.43
2017-07-16T02:01:03.250Z,65.24
2017-07-16T02:01:29.415Z,65.33
2017-07-16T02:01:55.591Z,65.33
2017-07-16T02:02:21.753Z,65.11
2017-07-16T02:02:47.911Z,65.2
2017-07-16T02:03:14.089Z,66.07
2017-07-16T02:03:40.253Z,65.69
2017-07-16T02:04:06.410Z,66.36
2017-07-16T02:04:32.584Z,66.27
2017-07-16T02:04:58.752Z,66.17
2017-07-16T02:05:24.909Z,66.36
2017-07-16T02:05:51.080Z,66.36
2017-07-16T02:06:17.254Z,65.69
2017-07-16T02:06:43.408Z,65.97
2017-07-16T02:07:09.574Z,65.78
2017-07-16T02:07:35.752Z,65.88
2017-07-16T02:08:01.939Z,65.88
2017-07-16T02:08:28.105Z,66.17
2017-07-16T02:08:54.276Z,65.97
2017-07-16T02:09:20.438Z,66.17
2017-07-16T02:09:46.594Z,66.55
2017-07-16T02:10:12.775Z,66.36
2017-07-16T02:10:38.962Z,66.36
2017-07-16T02:11:05.142Z,66.17
2017-07-16T02:11:31.336Z,66.55
2017-07-16T02:11:57.521Z,66.55
2017-07-16T02:12:23.702Z,66.55
2017-07-16T02:12:49.890Z,66.07
2017-07-16T02:13:16.082Z,66.07
2017-07-16T02:13:42.256Z,66.36
2017-07-16T02:14:08.443Z,66.07
2017-07-16T02:14:34.640Z,66.36
2017-07-16T02:15:00.812Z,65.97
2017-07-16T02:15:26.995Z,65.97
2017-07-16T02:15:53.190Z,66.27
2017-07-16T02:16:19.373Z,66.27
2017-07-16T02:16:45.565Z,66.36
2017-07-16T02:17:11.742Z,66.36
2017-07-16T02:17:37.929Z,66.55
2017-07-16T02:18:04.126Z,66.84
2017-07-16T02:18:30.301Z,66.17
2017-07-16T02:18:56.489Z,66.27
2017-07-16T02:19:22.681Z,66.65
2017-07-16T02:19:48.861Z,66.55
2017-07-16T02:20:15.068Z,66.84
2017-07-16T02:20:41.236Z,66.65
2017-07-16T02:21:07.420Z,66.84
2017-07-16T02:21:33.595Z,66.55
2017-07-16T02:21:59.788Z,66.84
2017-07-16T02:22:25.972Z,66.74
2017-07-16T02:22:52.166Z,66.27
2017-07-16T02:23:18.342Z,66.17
2017-07-16T02:23:44.521Z,65.97
2017-07-16T02:24:10.715Z,65.59
2017-07-16T02:24:36.902Z,66.07
2017-07-16T02:25:03.078Z,66.07
2017-07-16T02:25:29.273Z,66.36
2017-07-16T02:25:55.460Z,66.27
2017-07-16T02:26:21.634Z,66.17
2017-07-16T02:26:47.824Z,65.88
2017-07-16T02:27:14.018Z,65.69
2017-07-16T02:27:40.201Z,65.59
2017-07-16T02:28:06.384Z,65.78
2017-07-16T02:28:32.559Z,65.59
2017-07-16T02:28:58.753Z,65.4
2017-07-16T02:29:24.942Z,65.59
2017-07-16T02:29:51.118Z,65.78
2017-07-16T02:30:17.308Z,65.88
2017-07-16T02:30:43.501Z,65.78
2017-07-16T02:31:09.672Z,65.59
2017-07-16T02:31:35.862Z,65.5
2017-07-16T02:32:02.054Z,65.59
2017-07-16T02:32:28.234Z,65.59
2017-07-16T02:32:54.416Z,65.01
2017-07-16T02:33:20.602Z,65.88
2017-07-16T02:33:46.792Z,65.97
2017-07-16T02:34:12.987Z,65.78
2017-07-16T02:34:39.160Z,65.78
2017-07-16T02:35:05.348Z,65.59
2017-07-16T02:35:31.542Z,65.11
2017-07-16T02:35:57.719Z,65.11
2017-07-16T02:36:23.902Z,65.01
2017-07-16T02:36:50.099Z,65.11
2017-07-16T02:37:16.283Z,65.2
2017-07-16T02:37:42.494Z,65.2
2017-07-16T02:38:08.691Z,65.11
2017-07-16T02:38:34.875Z,65.11
2017-07-16T02:39:01.063Z,65.11
2017-07-16T02:39:27.241Z,65.11
2017-07-16T02:39:53.427Z,65.01
2017-07-16T02:40:19.620Z,65.2
2017-07-16T02:40:45.797Z,65.11
2017-07-16T02:41:11.970Z,65.11
2017-07-16T02:41:38.170Z,65.11
2017-07-16T02:42:04.352Z,65.3
2017-07-16T02:42:30.529Z,65.59
2017-07-16T02:42:56.723Z,65.78
2017-07-16T02:43:22.915Z,65.59
2017-07-16T02:43:49.090Z,65.69
2017-07-16T02:44:15.280Z,65.78
2017-07-16T02:44:41.458Z,65.4
2017-07-16T02:45:07.655Z,65.88
2017-07-16T02:45:33.872Z,65.88
2017-07-16T02:46:00.049Z,65.88
2017-07-16T02:46:26.275Z,66.07
2017-07-16T02:46:52.534Z,66.07
2017-07-16T02:47:18.712Z,65.01
2017-07-16T02:47:44.898Z,65.11
2017-07-16T02:48:11.093Z,65.2
2017-07-16T02:48:37.267Z,65.11
2017-07-16T02:49:03.457Z,65.2
2017-07-16T02:49:29.650Z,65.33
2017-07-16T02:49:55.826Z,64.92
2017-07-16T02:50:22.016Z,65.4
2017-07-16T02:50:48.207Z,65.63
2017-07-16T02:51:14.388Z,65.33
2017-07-16T02:51:40.569Z,65.24
2017-07-16T02:52:06.765Z,64.92
2017-07-16T02:52:32.962Z,65.11
2017-07-16T02:52:59.173Z,65.4
2017-07-16T02:53:25.369Z,65.2
2017-07-16T02:53:51.552Z,65.5
2017-07-16T02:54:17.732Z,65.2
2017-07-16T02:54:43.921Z,65.43
2017-07-16T02:55:10.118Z,65.4
2017-07-16T02:55:36.299Z,65.97
2017-07-16T02:56:02.480Z,66.17
2017-07-16T02:56:28.660Z,65.88
2017-07-16T02:56:54.853Z,65.69
2017-07-16T02:57:21.040Z,65.69
2017-07-16T02:57:47.215Z,65.78
2017-07-16T02:58:13.404Z,65.88
2017-07-16T02:58:39.597Z,65.88
2017-07-16T02:59:05.776Z,65.3
2017-07-16T02:59:31.959Z,65.59
2017-07-16T02:59:58.156Z,65.24
2017-07-16T03:00:24.334Z,66.17
2017-07-16T03:00:50.543Z,65.78
2017-07-16T03:01:16.738Z,65.78
2017-07-16T03:01:42.930Z,65.88
2017-07-16T03:02:09.123Z,66.17
2017-07-16T03:02:35.298Z,66.27
2017-07-16T03:03:01.483Z,65.78
2017-07-16T03:03:27.678Z,65.78
2017-07-16T03:03:53.858Z,65.69
2017-07-16T03:04:20.043Z,65.81
2017-07-16T03:04:46.268Z,66.17
2017-07-16T03:05:12.447Z,66.27
2017-07-16T03:05:38.628Z,65.78
2017-07-16T03:06:04.827Z,65.88
2017-07-16T03:06:31.011Z,65.88
2017-07-16T03:06:57.200Z,65.69
2017-07-16T03:07:23.381Z,66.36
2017-07-16T03:07:49.564Z,65.88
2017-07-16T03:08:15.757Z,66.07
2017-07-16T03:08:41.938Z,65.97
2017-07-16T03:09:08.173Z,66.17
2017-07-16T03:09:34.377Z,66.17
2017-07-16T03:10:00.589Z,66.36
2017-07-16T03:10:26.770Z,66.07
2017-07-16T03:10:53.037Z,66.17
2017-07-16T03:11:19.223Z,66.07
2017-07-16T03:11:45.399Z,66.07
2017-07-16T03:12:11.591Z,66.46
2017-07-16T03:12:37.789Z,66.94
2017-07-16T03:13:04.003Z,66.84
2017-07-16T03:13:30.211Z,66.74
2017-07-16T03:13:56.441Z,66.55
2017-07-16T03:14:22.706Z,66.84
2017-07-16T03:14:48.891Z,66.74
2017-07-16T03:15:15.069Z,66.74
2017-07-16T03:15:41.292Z,66.74
2017-07-16T03:16:07.530Z,66.65
2017-07-16T03:16:33.722Z,66.46
2017-07-16T03:16:59.934Z,66.74
2017-07-16T03:17:26.217Z,66.65
2017-07-16T03:17:52.427Z,66.55
2017-07-16T03:18:18.671Z,66.46
2017-07-16T03:18:44.887Z,66.74
2017-07-16T03:19:11.119Z,66.55
2017-07-16T03:19:37.385Z,66.65
2017-07-16T03:20:03.580Z,66.55
2017-07-16T03:20:29.748Z,66.74
2017-07-16T03:20:55.966Z,66.84
2017-07-16T03:21:22.145Z,66.55
2017-07-16T03:21:48.332Z,66.65
2017-07-16T03:22:14.530Z,66.74
2017-07-16T03:22:40.720Z,66.74
2017-07-16T03:23:06.890Z,66.46
2017-07-16T03:23:33.085Z,66.84
2017-07-16T03:23:59.268Z,67.22
2017-07-16T03:24:25.463Z,67.03
2017-07-16T03:24:51.641Z,67.22
2017-07-16T03:25:17.825Z,67.42
2017-07-16T03:25:44.018Z,67.42
2017-07-16T03:26:10.203Z,67.03
2017-07-16T03:26:36.383Z,66.94
2017-07-16T03:27:02.577Z,67.03
2017-07-16T03:27:28.758Z,67.22
2017-07-16T03:27:54.937Z,67.32
2017-07-16T03:28:21.132Z,67.13
2017-07-16T03:28:47.322Z,67.13
2017-07-16T03:29:13.508Z,67.13
2017-07-16T03:29:39.692Z,67.32
2017-07-16T03:30:05.897Z,67.61
2017-07-16T03:30:32.097Z,66.94
2017-07-16T03:30:58.283Z,67.03
2017-07-16T03:31:24.459Z,67.51
2017-07-16T03:31:50.655Z,67.32
2017-07-16T03:32:16.843Z,67.13
2017-07-16T03:32:43.022Z,67.13
2017-07-16T03:33:09.211Z,68.19
2017-07-16T03:33:35.413Z,67.61
2017-07-16T03:34:01.575Z,67.71
2017-07-16T03:34:27.798Z,68.19
2017-07-16T03:34:53.993Z,67.8
2017-07-16T03:35:20.171Z,67.51
2017-07-16T03:35:46.356Z,67.51
2017-07-16T03:36:12.546Z,67.71
2017-07-16T03:36:38.728Z,67.61
2017-07-16T03:37:04.903Z,67.8
2017-07-16T03:37:31.102Z,67.71
2017-07-16T03:37:57.281Z,67.99
2017-07-16T03:38:23.457Z,67.9
2017-07-16T03:38:49.651Z,68.35
2017-07-16T03:39:15.843Z,68.29
2017-07-16T03:39:42.019Z,67.8
2017-07-16T03:40:08.206Z,67.71
2017-07-16T03:40:34.393Z,67.61
2017-07-16T03:41:00.617Z,67.61
2017-07-16T03:41:26.803Z,68.29
2017-07-16T03:41:52.984Z,67.9
2017-07-16T03:42:19.174Z,68.09
2017-07-16T03:42:45.361Z,68.67
2017-07-16T03:43:11.539Z,68.67
2017-07-16T03:43:37.731Z,68.73
2017-07-16T03:44:03.927Z,68.48
2017-07-16T03:44:30.102Z,68.67
2017-07-16T03:44:56.326Z,68.38
2017-07-16T03:45:22.519Z,68.76
2017-07-16T03:45:48.700Z,68.86
2017-07-16T03:46:14.885Z,69.06
2017-07-16T03:46:41.063Z,68.76
2017-07-16T03:47:07.254Z,68.67
2017-07-16T03:47:33.445Z,68.67
2017-07-16T03:47:59.621Z,68.86
2017-07-16T03:48:25.807Z,68.76
2017-07-16T03:48:52.003Z,68.57
2017-07-16T03:49:18.242Z,68.67
2017-07-16T03:49:44.427Z,68.76
2017-07-16T03:50:10.618Z,68.76
2017-07-16T03:50:36.803Z,68.76
2017-07-16T03:51:02.979Z,68.67
2017-07-16T03:51:29.171Z,68.76
2017-07-16T03:51:55.358Z,68.48
2017-07-16T03:52:21.551Z,68.38
2017-07-16T03:52:47.735Z,68.48
2017-07-16T03:53:13.917Z,69.24
2017-07-16T03:53:40.110Z,69.24
2017-07-16T03:54:06.289Z,69.06
2017-07-16T03:54:32.472Z,69.34
2017-07-16T03:54:58.664Z,69.44
2017-07-16T03:55:24.850Z,69.44
2017-07-16T03:55:51.026Z,69.24
2017-07-16T03:56:17.222Z,69.15
2017-07-16T03:56:43.440Z,69.53
2017-07-16T03:57:09.627Z,69.15
2017-07-16T03:57:35.811Z,69.6
2017-07-16T03:58:01.985Z,69.5
2017-07-16T03:58:28.184Z,69.69
2017-07-16T03:58:54.359Z,69.4
2017-07-16T03:59:20.537Z,69.44
2017-07-16T03:59:46.732Z,69.31
2017-07-16T04:00:12.919Z,69.89
2017-07-16T04:00:39.096Z,69.53
2017-07-16T04:01:05.285Z,69.82
2017-07-16T04:01:31.480Z,69.44
2017-07-16T04:01:57.653Z,69.53
2017-07-16T04:02:23.841Z,69.79
2017-07-16T04:02:50.022Z,69.82
2017-07-16T04:03:16.219Z,70.07
2017-07-16T04:03:42.404Z,69.73
2017-07-16T04:04:08.584Z,69.44
2017-07-16T04:04:34.777Z,69.53
2017-07-16T04:05:00.967Z,70.11
2017-07-16T04:05:27.142Z,69.73
2017-07-16T04:05:53.330Z,69.82
2017-07-16T04:06:19.530Z,69.44
2017-07-16T04:06:45.706Z,69.44
2017-07-16T04:07:11.889Z,70.11
2017-07-16T04:07:38.084Z,69.73
2017-07-16T04:08:04.265Z,70.01
2017-07-16T04:08:30.457Z,70.01
2017-07-16T04:08:56.632Z,69.92
2017-07-16T04:09:22.818Z,70.4
2017-07-16T04:09:49.013Z,70.4
2017-07-16T04:10:15.193Z,69.82
2017-07-16T04:10:41.379Z,69.92
2017-07-16T04:11:07.571Z,69.73
2017-07-16T04:11:33.754Z,69.92
2017-07-16T04:11:59.932Z,69.92
2017-07-16T04:12:26.165Z,69.92
2017-07-16T04:12:52.349Z,69.92
2017-07-16T04:13:18.524Z,70.01
2017-07-16T04:13:44.718Z,70.21
2017-07-16T04:14:10.901Z,69.92
2017-07-16T04:14:37.092Z,70.01
2017-07-16T04:15:03.271Z,70.21
2017-07-16T04:15:29.481Z,69.92
2017-07-16T04:15:55.674Z,70.21
2017-07-16T04:16:21.857Z,70.3
2017-07-16T04:16:48.033Z,70.4
2017-07-16T04:17:14.235Z,70.4
2017-07-16T04:17:40.416Z,70.11
2017-07-16T04:18:06.594Z,70.5
2017-07-16T04:18:32.784Z,70.5
2017-07-16T04:18:58.978Z,70.3
2017-07-16T04:19:25.157Z,70.01
2017-07-16T04:19:51.344Z,70.21
2017-07-16T04:20:17.571Z,70.4
2017-07-16T04:20:43.780Z,70.11
2017-07-16T04:21:09.964Z,70.68
2017-07-16T04:21:36.155Z,70.68
2017-07-16T04:22:02.335Z,69.92
2017-07-16T04:22:28.513Z,70.68
2017-07-16T04:22:54.709Z,70.59
2017-07-16T04:23:20.892Z,70.3
2017-07-16T04:23:47.068Z,70.59
2017-07-16T04:24:13.261Z,70.4
2017-07-16T04:24:39.447Z,70.3
2017-07-16T04:25:05.666Z,70.3
2017-07-16T04:25:31.844Z,70.21
2017-07-16T04:25:58.023Z,70.3
2017-07-16T04:26:24.251Z,70.4
2017-07-16T04:26:50.439Z,70.59
2017-07-16T04:27:16.618Z,70.3
2017-07-16T04:27:42.811Z,70.21
2017-07-16T04:28:09.029Z,70.5
2017-07-16T04:28:35.174Z,70.4
2017-07-16T04:29:01.366Z,70.11
2017-07-16T04:29:27.556Z,70.3
2017-07-16T04:29:53.733Z,70.3
2017-07-16T04:30:19.921Z,70.3
2017-07-16T04:30:46.105Z,70.3
2017-07-16T04:31:12.296Z,70.3
2017-07-16T04:31:38.493Z,70.3
2017-07-16T04:32:04.662Z,70.68
2017-07-16T04:32:30.853Z,70.3
2017-07-16T04:32:57.044Z,70.68
2017-07-16T04:33:23.222Z,70.98
2017-07-16T04:33:49.406Z,70.78
2017-07-16T04:34:15.600Z,70.68
2017-07-16T04:34:41.778Z,70.5
2017-07-16T04:35:07.965Z,70.88
2017-07-16T04:35:34.158Z,70.88
2017-07-16T04:36:00.336Z,70.88
2017-07-16T04:36:26.530Z,70.88
2017-07-16T04:36:52.702Z,70.78
2017-07-16T04:37:18.892Z,71.26
2017-07-16T04:37:45.082Z,71.17
2017-07-16T04:38:11.244Z,71.36
2017-07-16T04:38:37.384Z,71.17
2017-07-16T04:39:03.534Z,71.17
2017-07-16T04:39:29.675Z,71.36
2017-07-16T04:39:55.812Z,71.46
2017-07-16T04:40:21.963Z,71.01
2017-07-16T04:40:48.107Z,70.72
2017-07-16T04:41:14.245Z,70.92
2017-07-16T04:41:40.400Z,70.88
2017-07-16T04:42:06.539Z,70.98
2017-07-16T04:42:32.691Z,71.55
2017-07-16T04:42:58.827Z,71.26
2017-07-16T04:43:24.961Z,70.98
2017-07-16T04:43:51.113Z,71.36
2017-07-16T04:44:17.256Z,71.46
2017-07-16T04:44:43.388Z,71.55
2017-07-16T04:45:09.539Z,71.94
2017-07-16T04:45:35.682Z,71.08
2017-07-16T04:46:01.819Z,71.26
2017-07-16T04:46:27.965Z,70.88
2017-07-16T04:46:54.119Z,70.98
2017-07-16T04:47:20.283Z,71.65
2017-07-16T04:47:46.422Z,71.46
2017-07-16T04:48:12.559Z,71.46
2017-07-16T04:48:38.740Z,71.46
2017-07-16T04:49:04.876Z,71.46
2017-07-16T04:49:31.014Z,71.36
2017-07-16T04:49:57.163Z,71.65
2017-07-16T04:50:23.311Z,71.84
2017-07-16T04:50:49.442Z,71.69
2017-07-16T04:51:15.585Z,71.08
2017-07-16T04:51:41.736Z,71.4
2017-07-16T04:52:07.871Z,71.3
2017-07-16T04:52:34.017Z,71.3
2017-07-16T04:53:00.159Z,71.69
2017-07-16T04:53:26.331Z,71.4
2017-07-16T04:53:52.479Z,71.3
2017-07-16T04:54:18.613Z,71.4
2017-07-16T04:54:44.755Z,70.92
2017-07-16T04:55:10.906Z,70.92
2017-07-16T04:55:37.041Z,71.01
2017-07-16T04:56:03.181Z,70.72
2017-07-16T04:56:29.332Z,71.01
2017-07-16T04:56:55.464Z,70.53
2017-07-16T04:57:21.601Z,70.62
2017-07-16T04:57:47.754Z,71.2
2017-07-16T04:58:13.899Z,71.2
2017-07-16T04:58:40.046Z,71.01
2017-07-16T04:59:06.182Z,71.01
2017-07-16T04:59:32.320Z,71.01
2017-07-16T04:59:58.473Z,71.49
2017-07-16T05:00:24.609Z,71.49
2017-07-16T05:00:50.748Z,71.3
2017-07-16T05:01:16.898Z,71.2
2017-07-16T05:01:43.043Z,70.92
2017-07-16T05:02:09.181Z,71.49
2017-07-16T05:02:35.331Z,71.3
2017-07-16T05:03:01.473Z,71.49
2017-07-16T05:03:27.609Z,71.01
2017-07-16T05:03:53.781Z,70.92
2017-07-16T05:04:19.909Z,70.92
2017-07-16T05:04:46.041Z,71.01
2017-07-16T05:05:12.189Z,71.01
2017-07-16T05:05:38.339Z,71.11
2017-07-16T05:06:04.473Z,70.92
2017-07-16T05:06:30.613Z,71.2
2017-07-16T05:06:56.769Z,70.62
2017-07-16T05:07:22.904Z,70.34
2017-07-16T05:07:49.038Z,70.53
2017-07-16T05:08:15.192Z,70.43
2017-07-16T05:08:41.337Z,71.2
2017-07-16T05:09:07.473Z,70.92
2017-07-16T05:09:33.624Z,71.26
2017-07-16T05:09:59.762Z,71.46
2017-07-16T05:10:25.917Z,71.17
2017-07-16T05:10:52.057Z,70.98
2017-07-16T05:11:18.190Z,70.98
2017-07-16T05:11:44.348Z,71.26
2017-07-16T05:12:10.488Z,71.46
2017-07-16T05:12:36.622Z,71.46
2017-07-16T05:13:02.773Z,71.36
2017-07-16T05:13:28.921Z,70.92
2017-07-16T05:13:55.054Z,71.4
2017-07-16T05:14:21.205Z,70.4
2017-07-16T05:14:47.357Z,71.08
2017-07-16T05:15:13.496Z,71.2
2017-07-16T05:15:39.638Z,70.98
2017-07-16T05:16:05.770Z,70.62
2017-07-16T05:16:31.927Z,70.43
2017-07-16T05:16:58.070Z,70.34
2017-07-16T05:17:24.204Z,70.4
2017-07-16T05:17:50.352Z,70.5
2017-07-16T05:18:16.508Z,70.43
2017-07-16T05:18:42.641Z,70.11
2017-07-16T05:19:08.790Z,70.34
2017-07-16T05:19:34.940Z,70.72
2017-07-16T05:20:01.074Z,70.34
2017-07-16T05:20:27.234Z,69.95
2017-07-16T05:20:53.378Z,69.95
2017-07-16T05:21:19.523Z,70.05
2017-07-16T05:21:45.676Z,70.34
2017-07-16T05:22:11.806Z,70.15
2017-07-16T05:22:37.952Z,70.62
2017-07-16T05:23:04.106Z,70.11
2017-07-16T05:23:30.238Z,69.92
2017-07-16T05:23:56.378Z,70.15
2017-07-16T05:24:22.531Z,70.24
2017-07-16T05:24:48.675Z,69.76
2017-07-16T05:25:14.803Z,69.85
2017-07-16T05:25:40.961Z,69.67
2017-07-16T05:26:07.101Z,69.76
2017-07-16T05:26:33.248Z,70.05
2017-07-16T05:26:59.385Z,69.57
2017-07-16T05:27:25.526Z,70.05
2017-07-16T05:27:51.686Z,69.85
2017-07-16T05:28:17.816Z,69.47
2017-07-16T05:28:43.952Z,69.57
2017-07-16T05:29:10.108Z,69.57
2017-07-16T05:29:36.251Z,69.57
2017-07-16T05:30:02.390Z,69.67
2017-07-16T05:30:28.540Z,69.67
2017-07-16T05:30:54.682Z,69.57
2017-07-16T05:31:20.817Z,69.47
2017-07-16T05:31:46.968Z,69.47
2017-07-16T05:32:13.102Z,69.76
2017-07-16T05:32:39.256Z,69.76
2017-07-16T05:33:05.399Z,69.76
2017-07-16T05:33:31.536Z,69.57
2017-07-16T05:33:57.684Z,69.76
2017-07-16T05:34:23.830Z,69.76
2017-07-16T05:34:49.964Z,69.76
2017-07-16T05:35:16.114Z,69.76
2017-07-16T05:35:42.264Z,69.85
2017-07-16T05:36:08.396Z,69.85
2017-07-16T05:36:34.542Z,69.76
2017-07-16T05:37:00.692Z,70.15
2017-07-16T05:37:26.829Z,70.15
2017-07-16T05:37:52.975Z,70.15
2017-07-16T05:38:19.109Z,70.05